Port Charlotte, Florida
Current Conditions -  °F | °C
As of 9:53 AM on Friday 24 Oct 2014 (Local Time) from KPGD Reporting Station
Broken Clouds Broken Clouds  
Wind Chill: 21°   Ceiling: 4200
Heat Index: 21°   Visibility: 10mi
Dew Point: 15°   Wind: 14mph
Humidity: 70%   Direction: 30°NNE
Pressure: 29.99"   Gusts: NA
Location:  26.98°N, 82.1°W
Report Text: KPGD 241353Z 03012KT 10SM BKN042 21/15 A2999 RMK AO2 SLP154 T02060150
Loading
Personal Weather Stations






























Interactive Weather Map
Tropical Storm Tracking
New forecast layout! Learn more

10-Day Weather Forecast

Advertisements
Track Severe Weather on mobile